Time;durP1;ratioP1;P1;durP2;ratioP2;P2;SDS_P1;SDS_P2;PMS_P1;PMS_P2;Temp;Humidity;BMP_temperature;BMP_pressure;BME280_temperature;BME280_humidity;BME280_pressure;Samples;Min_cycle;Max_cycle;Signal;HPM_P1;HPM_P2
2022/09/01 00:00:52;;;;;;;;;;;;;;;16.99;75.19;101064.75;12866384;23;19931;-71
2022/09/01 00:05:55;;;;;;;;;;;;;;;16.96;75.89;101059.59;12866632;23;19920;-71
2022/09/01 00:10:58;;;;;;;;;;;;;;;16.97;76.04;101058.69;12866212;23;19991;-68
2022/09/01 00:16:03;;;;;;;;;;;;;;;16.84;76.93;101065.97;12866867;23;20318;-73
2022/09/01 00:21:06;;;;;;;;;;;;;;;16.80;77.14;101068.72;12866678;23;19951;-71
2022/09/01 00:26:09;;;;;;;;;;;;;;;16.75;77.21;101070.59;12865759;23;19995;-68
2022/09/01 00:31:14;;;;;;;;;;;;;;;16.74;77.51;101072.34;12866068;23;19990;-70
2022/09/01 00:36:18;;;;;;;;;;;;;;;16.75;78.01;101070.59;12866122;23;20002;-70
2022/09/01 00:41:23;;;;;;;;;;;;;;;16.79;77.70;101067.00;12865680;23;20319;-70
2022/09/01 00:46:29;;;;;;;;;;;;;;;16.78;78.12;101066.13;12865700;23;20331;-70
2022/09/01 00:51:34;;;;;;;;;;;;;;;16.76;78.20;101061.81;12867300;23;20002;-72
2022/09/01 00:56:39;;;;;;;;;;;;;;;16.72;78.59;101063.66;12866373;23;19920;-74
2022/09/01 01:01:50;;;;;;;;;;;;;;;16.69;78.72;101062.84;12886507;23;19943;-72
2022/09/01 01:07:00;;;;;;;;;;;;;;;16.64;79.29;101062.09;12865549;23;19995;-72
2022/09/01 01:12:05;;;;;;;;;;;;;;;16.61;78.81;101067.44;12865579;23;19990;-71
2022/09/01 01:17:09;;;;;;;;;;;;;;;16.46;79.78;101065.13;12865594;23;19931;-73
2022/09/01 01:27:41;;;;;;;;;;;;;;;16.47;80.21;101067.75;12878347;23;19931;-72
2022/09/01 01:32:46;;;;;;;;;;;;;;;16.32;81.05;101065.44;12889010;23;20370;-73
2022/09/01 01:37:50;;;;;;;;;;;;;;;16.39;80.53;101061.81;12869190;23;19952;-74
2022/09/01 01:42:56;;;;;;;;;;;;;;;16.36;80.36;101055.78;12868759;23;19939;-73
2022/09/01 01:47:59;;;;;;;;;;;;;;;16.28;80.68;101061.16;12888417;23;19999;-72
2022/09/01 01:53:03;;;;;;;;;;;;;;;16.28;81.13;101058.53;12888552;23;19954;-71
2022/09/01 01:58:14;;;;;;;;;;;;;;;16.28;80.53;101062.91;12887980;23;19983;-74
2022/09/01 02:03:20;;;;;;;;;;;;;;;16.18;80.97;101063.13;12869133;23;19990;-73
2022/09/01 02:08:24;;;;;;;;;;;;;;;16.16;81.00;101058.81;12887785;23;19940;-71
2022/09/01 02:13:30;;;;;;;;;;;;;;;16.04;81.89;101057.34;12887515;23;19928;-70
2022/09/01 02:18:35;;;;;;;;;;;;;;;16.01;81.91;101046.91;12868487;23;19919;-72
2022/09/01 02:23:39;;;;;;;;;;;;;;;15.86;83.07;101049.84;12867898;23;20299;-73
2022/09/01 02:28:45;;;;;;;;;;;;;;;15.89;82.75;101055.00;12867721;23;19983;-70
2022/09/01 02:33:55;;;;;;;;;;;;;;;15.92;82.98;101052.34;12886471;23;19994;-71
2022/09/01 02:38:58;;;;;;;;;;;;;;;15.78;83.36;101046.53;12867822;23;19940;-70
2022/09/01 02:44:10;;;;;;;;;;;;;;;15.79;83.04;101048.25;12886913;23;19951;-69
2022/09/01 02:49:16;;;;;;;;;;;;;;;15.82;83.05;101060.41;12885534;23;20002;-70
2022/09/01 02:54:21;;;;;;;;;;;;;;;15.77;82.86;101057.88;12867557;23;20323;-72
2022/09/01 02:59:27;;;;;;;;;;;;;;;15.73;83.26;101058.84;12867539;23;20311;-71
2022/09/01 03:04:33;;;;;;;;;;;;;;;15.60;84.06;101057.34;12867921;23;19999;-70
2022/09/01 03:09:37;;;;;;;;;;;;;;;15.67;83.65;101053.72;12884850;23;19920;-70
2022/09/01 03:14:42;;;;;;;;;;;;;;;15.68;83.50;101052.84;12867036;23;20359;-70
2022/09/01 03:19:45;;;;;;;;;;;;;;;15.51;84.24;101054.94;12866903;23;19995;-71
2022/09/01 03:24:48;;;;;;;;;;;;;;;15.47;84.60;101057.63;12866807;23;20295;-70
2022/09/01 03:29:53;;;;;;;;;;;;;;;15.46;84.60;101058.53;12867040;23;19999;-71
2022/09/01 03:34:56;;;;;;;;;;;;;;;15.49;83.94;101071.53;12866555;23;19951;-72
2022/09/01 03:39:59;;;;;;;;;;;;;;;15.32;84.99;101069.22;12867065;23;19994;-74
2022/09/01 03:45:07;;;;;;;;;;;;;;;15.45;84.21;101065.50;12866040;23;20338;-72
2022/09/01 03:50:16;;;;;;;;;;;;;;;15.30;84.77;101067.50;12866588;23;19999;-70
2022/09/01 03:55:22;;;;;;;;;;;;;;;15.32;85.09;101066.59;12884003;23;19943;-71
2022/09/01 04:00:28;;;;;;;;;;;;;;;15.29;85.45;101064.00;12867311;23;19982;-70
2022/09/01 04:05:32;;;;;;;;;;;;;;;15.34;84.92;101058.72;12869180;23;19955;-71
2022/09/01 04:10:37;;;;;;;;;;;;;;;15.26;85.52;101057.97;12866820;23;19971;-72
2022/09/01 04:15:41;;;;;;;;;;;;;;;15.29;85.34;101056.16;12867114;23;19987;-72
2022/09/01 04:20:48;;;;;;;;;;;;;;;15.30;85.20;101062.25;12866090;23;19935;-73
2022/09/01 04:25:52;;;;;;;;;;;;;;;15.29;85.01;101061.41;12882793;23;19943;-72
2022/09/01 04:30:57;;;;;;;;;;;;;;;15.25;85.63;101057.13;12865846;23;19943;-72
2022/09/01 04:36:01;;;;;;;;;;;;;;;15.32;85.32;101066.59;12865792;23;19940;-71
2022/09/01 04:41:06;;;;;;;;;;;;;;;15.24;85.45;101057.16;12865647;23;19994;-70
2022/09/01 04:46:13;;;;;;;;;;;;;;;15.38;84.63;101062.97;12865548;23;20300;-69
2022/09/01 04:51:16;;;;;;;;;;;;;;;15.27;85.59;101073.66;12882180;23;20000;-70
2022/09/01 04:56:21;;;;;;;;;;;;;;;15.38;86.15;101071.69;12869371;23;19951;-72
2022/09/01 05:01:26;;;;;;;;;;;;;;;15.44;85.67;101062.91;12886163;23;20034;-72
2022/09/01 05:06:33;;;;;;;;;;;;;;;15.53;84.96;101071.44;12869335;23;20282;-74
2022/09/01 05:11:37;;;;;;;;;;;;;;;15.61;84.45;101060.84;12886047;23;19947;-73
2022/09/01 05:16:41;;;;;;;;;;;;;;;15.64;84.86;101069.50;12869174;23;19951;-73
2022/09/01 05:21:46;;;;;;;;;;;;;;;15.58;84.64;101066.97;12869154;23;19983;-69
2022/09/01 05:26:49;;;;;;;;;;;;;;;15.65;84.60;101068.59;12867259;23;20362;-73
2022/09/01 05:31:54;;;;;;;;;;;;;;;15.60;84.67;101069.59;12865154;23;19924;-73
2022/09/01 05:36:58;;;;;;;;;;;;;;;15.70;84.68;101069.34;12865841;23;19920;-72
2022/09/01 05:42:04;;;;;;;;;;;;;;;15.73;84.73;101064.09;12865093;23;20039;-71
2022/09/01 05:47:10;;;;;;;;;;;;;;;15.86;84.24;101065.56;12881228;23;19987;-70
2022/09/01 05:52:25;;;;;;;;;;;;;;;15.89;83.92;101057.63;12880465;23;20323;-69
2022/09/01 05:57:28;;;;;;;;;;;;;;;15.89;83.75;101060.25;12864770;23;20322;-71
2022/09/01 06:02:39;;;;;;;;;;;;;;;16.02;83.60;101061.72;12879863;23;19924;-70
2022/09/01 06:07:43;;;;;;;;;;;;;;;16.10;82.74;101057.19;12864728;23;19946;-70
2022/09/01 06:12:46;;;;;;;;;;;;;;;16.07;82.68;101059.00;12863926;23;19924;-72
2022/09/01 06:17:54;;;;;;;;;;;;;;;16.14;82.41;101056.22;12856883;23;19958;-69
2022/09/01 06:22:57;;;;;;;;;;;;;;;16.20;81.13;101057.88;12872418;23;19947;-70
2022/09/01 06:28:03;;;;;;;;;;;;;;;16.31;80.19;101063.72;12776487;23;1906533;-71
2022/09/01 06:33:10;;;;;;;;;;;;;;;16.42;79.83;101066.09;12876287;23;20037;-69
2022/09/01 06:38:15;;;;;;;;;;;;;;;16.39;77.82;101071.41;12875022;23;20356;-72
2022/09/01 06:43:18;;;;;;;;;;;;;;;16.47;76.37;101077.38;12861085;23;19928;-71
2022/09/01 06:48:22;;;;;;;;;;;;;;;16.58;74.92;101081.50;12861862;23;19920;-71
2022/09/01 06:53:25;;;;;;;;;;;;;;;16.68;74.13;101076.88;12862041;23;19994;-71
2022/09/01 06:58:51;;;;;;;;;;;;;;;16.78;73.88;101076.63;12874510;23;20244;-71
2022/09/01 07:03:56;;;;;;;;;;;;;;;16.86;73.48;101076.47;12874186;23;20003;-69
2022/09/01 07:09:00;;;;;;;;;;;;;;;16.93;73.14;101065.75;12859390;23;19927;-71
2022/09/01 07:14:23;;;;;;;;;;;;;;;17.08;73.61;101060.13;12860334;23;19995;-68
2022/09/01 07:19:28;;;;;;;;;;;;;;;17.17;73.53;101069.56;12859532;23;19920;-70
2022/09/01 07:24:56;;;;;;;;;;;;;;;17.24;73.33;101071.09;12859742;23;19995;-70
2022/09/01 07:30:14;;;;;;;;;;;;;;;17.42;72.34;101060.13;12870843;23;20329;-71
2022/09/01 07:35:21;;;;;;;;;;;;;;;17.57;72.20;101064.16;12858876;23;20046;-69
2022/09/01 07:40:27;;;;;;;;;;;;;;;17.63;71.95;101062.19;12870119;23;20054;-72
2022/09/01 07:45:54;;;;;;;;;;;;;;;17.59;71.30;101070.19;12858901;23;19956;-74
2022/09/01 07:51:02;;;;;;;;;;;;;;;17.68;71.11;101062.94;12867924;23;19934;-75
2022/09/01 07:56:29;;;;;;;;;;;;;;;17.82;71.12;101062.53;12858896;23;19955;-72
2022/09/01 08:01:32;;;;;;;;;;;;;;;17.85;70.84;101072.94;12866605;23;20010;-72
2022/09/01 08:06:37;;;;;;;;;;;;;;;17.89;69.99;101070.22;12859088;23;19968;-68
2022/09/01 08:11:41;;;;;;;;;;;;;;;18.26;68.46;101069.97;12867654;23;20311;-70
2022/09/01 08:17:04;;;;;;;;;;;;;;;18.54;68.19;101060.38;12859054;23;19920;-71
2022/09/01 08:22:28;;;;;;;;;;;;;;;18.65;68.12;101065.28;12858723;23;19939;-73
2022/09/01 08:27:37;;;;;;;;;;;;;;;18.75;66.93;101061.47;12864200;23;20022;-73
2022/09/01 08:32:41;;;;;;;;;;;;;;;18.77;66.88;101051.75;12859860;23;19954;-71
2022/09/01 08:37:45;;;;;;;;;;;;;;;18.69;64.89;101059.03;12860613;23;20379;-74
2022/09/01 08:42:53;;;;;;;;;;;;;;;18.68;64.24;101060.81;12859009;23;20010;-71
2022/09/01 08:47:58;;;;;;;;;;;;;;;18.77;64.26;101059.66;12864954;23;19999;-73
2022/09/01 08:53:26;;;;;;;;;;;;;;;18.74;65.21;101062.38;12863720;23;19987;-71
2022/09/01 08:58:30;;;;;;;;;;;;;;;18.94;65.41;101052.06;12857607;23;20266;-72
2022/09/01 09:03:39;;;;;;;;;;;;;;;19.33;65.14;101051.59;12857858;23;19931;-69
2022/09/01 09:08:56;;;;;;;;;;;;;;;19.63;64.74;101048.78;12862784;23;19994;-69
2022/09/01 09:14:06;;;;;;;;;;;;;;;19.90;64.05;101042.50;12861912;23;19920;-70
2022/09/01 09:19:11;;;;;;;;;;;;;;;19.95;62.50;101041.41;12862362;23;19955;-73
2022/09/01 09:24:20;;;;;;;;;;;;;;;20.16;60.63;101038.00;12858414;23;19955;-72
2022/09/01 09:29:24;;;;;;;;;;;;;;;20.28;59.04;101032.25;12862228;23;19920;-68
2022/09/01 09:34:32;;;;;;;;;;;;;;;20.41;57.86;101028.25;12859971;23;19999;-71
2022/09/01 09:39:37;;;;;;;;;;;;;;;20.46;56.94;101030.69;12864911;23;20223;-71
2022/09/01 09:44:42;;;;;;;;;;;;;;;20.39;57.04;101031.84;12864510;23;20337;-74
2022/09/01 09:49:46;;;;;;;;;;;;;;;20.87;56.28;101013.16;12865871;23;20002;-71
2022/09/01 09:55:08;;;;;;;;;;;;;;;23.05;49.78;101016.19;12860899;23;19991;-72
2022/09/01 10:00:19;;;;;;;;;;;;;;;23.10;50.59;101002.72;12859563;23;20030;-71
2022/09/01 10:05:28;;;;;;;;;;;;;;;22.95;51.34;101012.31;12862253;23;20354;-71
2022/09/01 10:10:37;;;;;;;;;;;;;;;22.35;52.00;101000.25;12883943;23;20223;-69
2022/09/01 10:15:43;;;;;;;;;;;;;;;22.35;50.73;101002.91;12864509;23;19940;-70
2022/09/01 10:20:50;;;;;;;;;;;;;;;22.48;49.30;101013.75;12887734;23;19919;-71
2022/09/01 10:25:56;;;;;;;;;;;;;;;22.97;48.35;101013.06;12883954;23;19943;-73
2022/09/01 10:31:01;;;;;;;;;;;;;;;23.14;47.85;101005.16;12888700;23;19931;-72
2022/09/01 10:36:06;;;;;;;;;;;;;;;23.60;47.79;100999.19;12888700;23;20291;-70
2022/09/01 10:41:10;;;;;;;;;;;;;;;23.96;46.72;101005.13;12868101;23;19920;-71
2022/09/01 10:46:32;;;;;;;;;;;;;;;23.71;45.55;101004.75;12888182;23;19970;-74
2022/09/01 10:51:53;;;;;;;;;;;;;;;23.99;45.29;100999.69;12887745;23;20243;-73
2022/09/01 10:57:00;;;;;;;;;;;;;;;24.38;44.96;100995.75;12888446;23;19951;-72
2022/09/01 11:02:12;;;;;;;;;;;;;;;24.78;44.26;100985.41;12887539;23;20300;-72
2022/09/01 11:07:39;;;;;;;;;;;;;;;25.10;43.81;100981.72;12886474;23;19943;-72
2022/09/01 11:13:09;;;;;;;;;;;;;;;25.05;43.06;100981.16;12866859;23;19946;-67
2022/09/01 11:18:15;;;;;;;;;;;;;;;25.59;42.54;100976.94;12866510;23;20002;-66
2022/09/01 11:23:24;;;;;;;;;;;;;;;25.16;42.86;100974.34;12883936;23;20279;-70
2022/09/01 11:28:40;;;;;;;;;;;;;;;24.70;42.50;100985.03;12866375;23;19944;-68
2022/09/01 11:33:52;;;;;;;;;;;;;;;25.83;40.48;100975.44;12882760;23;19944;-67
2022/09/01 11:38:59;;;;;;;;;;;;;;;25.73;41.16;100989.41;12882353;23;19978;-67
2022/09/01 11:44:03;;;;;;;;;;;;;;;26.59;39.69;100986.47;12867490;23;19947;-65
2022/09/01 11:49:08;;;;;;;;;;;;;;;26.89;39.48;100985.31;12866107;23;19919;-65
2022/09/01 11:54:13;;;;;;;;;;;;;;;27.32;40.02;100985.09;12866275;23;19999;-69
2022/09/01 11:59:29;;;;;;;;;;;;;;;28.04;37.40;100982.56;12866496;23;19963;-66
2022/09/01 12:04:36;;;;;;;;;;;;;;;28.52;36.33;100975.47;12880718;23;19955;-70
2022/09/01 12:09:42;;;;;;;;;;;;;;;28.70;37.26;100977.59;12881261;23;19994;-68
2022/09/01 12:14:54;;;;;;;;;;;;;;;26.57;38.05;100978.59;12865279;23;19947;-67
2022/09/01 12:20:27;;;;;;;;;;;;;;;26.95;36.20;100992.91;12879735;23;19994;-71
2022/09/01 12:25:34;;;;;;;;;;;;;;;27.87;35.46;100970.38;12877840;23;19924;-69
2022/09/01 12:30:39;;;;;;;;;;;;;;;28.67;34.02;100953.78;12878511;23;19920;-74
2022/09/01 12:35:42;;;;;;;;;;;;;;;29.69;32.23;100949.38;12865966;23;19935;-73
2022/09/01 12:40:48;;;;;;;;;;;;;;;29.79;31.72;100947.66;12865313;23;19951;-71
2022/09/01 12:45:51;;;;;;;;;;;;;;;26.60;35.71;100962.41;12878703;23;20307;-74
2022/09/01 12:50:55;;;;;;;;;;;;;;;25.14;37.74;100966.47;12865311;23;19999;-70
2022/09/01 12:56:05;;;;;;;;;;;;;;;24.57;39.21;100962.75;12865309;23;20240;-71
2022/09/01 13:01:13;;;;;;;;;;;;;;;27.78;35.78;100940.84;12865149;23;19920;-71
2022/09/01 13:06:19;;;;;;;;;;;;;;;26.09;38.01;100953.34;12877885;23;19920;-70
2022/09/01 13:11:23;;;;;;;;;;;;;;;24.57;39.57;100956.59;12865194;23;20287;-72
2022/09/01 13:16:26;;;;;;;;;;;;;;;25.76;38.30;100955.50;12867551;23;19948;-71
2022/09/01 13:21:30;;;;;;;;;;;;;;;27.25;36.88;100953.47;12868601;23;20003;-70
2022/09/01 13:26:34;;;;;;;;;;;;;;;27.67;35.80;100936.28;12868799;23;20007;-72
2022/09/01 13:31:38;;;;;;;;;;;;;;;27.98;35.46;100938.47;12868689;23;19951;-74
2022/09/01 13:37:00;;;;;;;;;;;;;;;28.11;35.71;100935.78;12880837;23;20330;-74
2022/09/01 13:42:05;;;;;;;;;;;;;;;26.86;36.91;100940.22;12868705;23;19944;-73
2022/09/01 13:47:08;;;;;;;;;;;;;;;25.46;38.64;100956.53;12868669;23;19967;-73
2022/09/01 13:52:31;;;;;;;;;;;;;;;24.46;39.92;100962.53;12869203;23;19920;-73
2022/09/01 13:57:36;;;;;;;;;;;;;;;23.94;40.64;100967.22;12868726;23;19951;-72
2022/09/01 14:02:39;;;;;;;;;;;;;;;23.54;41.78;100977.44;12868536;23;20255;-75
2022/09/01 14:07:42;;;;;;;;;;;;;;;23.16;42.46;100976.75;12868094;23;20288;-70
2022/09/01 14:12:47;;;;;;;;;;;;;;;22.96;43.06;100978.72;12867893;23;19995;-74
2022/09/01 14:17:51;;;;;;;;;;;;;;;23.14;42.63;100983.94;12868436;23;19947;-70
2022/09/01 14:22:55;;;;;;;;;;;;;;;22.74;43.02;100974.50;12867479;23;20330;-74
2022/09/01 14:28:00;;;;;;;;;;;;;;;22.44;43.32;100975.13;12867248;23;19994;-73
2022/09/01 14:33:03;;;;;;;;;;;;;;;22.83;42.00;100973.22;12880361;23;20346;-68
2022/09/01 14:38:07;;;;;;;;;;;;;;;22.99;42.22;100968.00;12866962;23;19920;-66
2022/09/01 14:43:13;;;;;;;;;;;;;;;23.31;41.98;100967.19;12867249;23;19978;-66
2022/09/01 14:48:17;;;;;;;;;;;;;;;23.20;42.22;100973.03;12879851;23;20299;-67
2022/09/01 14:53:20;;;;;;;;;;;;;;;22.81;43.01;100975.06;12867329;23;20389;-65
2022/09/01 14:58:26;;;;;;;;;;;;;;;22.69;43.41;100973.03;12865841;23;19951;-66
2022/09/01 15:03:29;;;;;;;;;;;;;;;22.18;44.34;100973.75;12880373;23;19983;-68
2022/09/01 15:08:33;;;;;;;;;;;;;;;22.11;44.77;100976.75;12867076;23;19919;-66
2022/09/01 15:13:37;;;;;;;;;;;;;;;21.97;44.86;100971.28;12867007;23;19919;-68
2022/09/01 15:18:40;;;;;;;;;;;;;;;21.74;45.31;100972.31;12867478;23;20318;-70
2022/09/01 15:23:43;;;;;;;;;;;;;;;21.61;45.89;100973.78;12866648;23;19958;-69
2022/09/01 15:28:48;;;;;;;;;;;;;;;21.50;46.72;100979.56;12866508;23;20308;-70
2022/09/01 15:33:51;;;;;;;;;;;;;;;21.35;47.00;100971.47;12866370;23;19995;-70
2022/09/01 15:38:54;;;;;;;;;;;;;;;21.29;46.69;100972.63;12866245;23;19955;-71
2022/09/01 15:43:59;;;;;;;;;;;;;;;21.35;46.11;100963.53;12866467;23;19920;-70
2022/09/01 15:49:03;;;;;;;;;;;;;;;21.32;46.01;100964.56;12866451;23;19920;-69
2022/09/01 15:54:08;;;;;;;;;;;;;;;21.40;46.71;100970.34;12866063;23;19920;-69
2022/09/01 15:59:13;;;;;;;;;;;;;;;21.37;47.46;100966.97;12866220;23;20370;-68
2022/09/01 16:04:17;;;;;;;;;;;;;;;21.27;48.21;100963.91;12874221;23;19924;-70
2022/09/01 16:09:25;;;;;;;;;;;;;;;21.21;47.93;100958.03;12866345;23;19935;-69
2022/09/01 16:14:30;;;;;;;;;;;;;;;21.14;47.02;100953.94;12866071;23;19994;-70
2022/09/01 16:19:38;;;;;;;;;;;;;;;21.08;47.46;100960.34;12861977;23;20026;-66
2022/09/01 16:24:42;;;;;;;;;;;;;;;20.93;48.70;100960.13;12874254;23;19986;-66
2022/09/01 16:29:48;;;;;;;;;;;;;;;20.80;48.99;100962.41;12858987;23;19970;-63
2022/09/01 16:34:51;;;;;;;;;;;;;;;20.68;50.04;100961.16;12873903;23;19995;-68
2022/09/01 16:39:58;;;;;;;;;;;;;;;20.58;50.76;100962.47;12858246;23;20313;-68
2022/09/01 16:45:04;;;;;;;;;;;;;;;20.43;50.54;100965.72;12859488;23;19924;-67
2022/09/01 16:50:11;;;;;;;;;;;;;;;20.45;50.37;100974.44;12876253;23;20002;-66
2022/09/01 16:55:21;;;;;;;;;;;;;;;20.35;50.82;100973.09;12878499;23;20355;-66
2022/09/01 17:00:32;;;;;;;;;;;;;;;20.26;50.80;100988.44;12862261;23;19947;-65
2022/09/01 17:05:39;;;;;;;;;;;;;;;20.12;51.53;100991.53;12863753;23;19995;-67
2022/09/01 17:10:47;;;;;;;;;;;;;;;20.03;52.47;100994.56;12880065;23;19990;-66
2022/09/01 17:15:55;;;;;;;;;;;;;;;20.04;52.12;100995.41;12880326;23;19995;-72
2022/09/01 17:21:01;;;;;;;;;;;;;;;19.87;52.81;101001.31;12878652;23;20390;-73
2022/09/01 17:26:07;;;;;;;;;;;;;;;19.83;52.87;101001.50;12862307;23;19935;-76
2022/09/01 17:31:14;;;;;;;;;;;;;;;19.78;53.33;101008.69;12861809;23;19924;-77
2022/09/01 17:36:22;;;;;;;;;;;;;;;19.68;52.88;101018.75;12876917;23;19931;-74
2022/09/01 17:41:33;;;;;;;;;;;;;;;19.59;53.00;101026.97;12877088;23;20003;-74
2022/09/01 17:46:42;;;;;;;;;;;;;;;19.55;53.41;101041.19;12862076;23;19924;-74
2022/09/01 17:51:52;;;;;;;;;;;;;;;19.44;53.97;101035.44;12862251;23;19928;-75
2022/09/01 17:56:58;;;;;;;;;;;;;;;19.37;53.58;101044.44;12876311;23;19994;-76
2022/09/01 18:02:14;;;;;;;;;;;;;;;19.24;54.18;101051.03;12861175;23;19955;-72
2022/09/01 18:07:26;;;;;;;;;;;;;;;19.25;54.31;101056.25;12874826;23;19955;-76
2022/09/01 18:12:31;;;;;;;;;;;;;;;19.16;54.59;101063.56;12874564;23;20074;-74
2022/09/01 18:17:38;;;;;;;;;;;;;;;19.07;55.18;101064.75;12860778;23;19920;-75
2022/09/01 18:22:46;;;;;;;;;;;;;;;18.99;56.47;101073.81;12874126;23;19966;-75
2022/09/01 18:27:49;;;;;;;;;;;;;;;18.95;56.75;101078.31;12861413;23;19923;-77
2022/09/01 18:33:00;;;;;;;;;;;;;;;18.91;56.75;101096.88;12860735;23;19992;-76
2022/09/01 18:38:15;;;;;;;;;;;;;;;18.83;57.71;101102.38;12874942;23;19931;-77
2022/09/01 18:43:22;;;;;;;;;;;;;;;18.72;57.48;101101.00;12874212;23;19931;-77
2022/09/01 18:48:36;;;;;;;;;;;;;;;18.73;57.55;101102.72;12862383;23;19931;-74
2022/09/01 18:53:44;;;;;;;;;;;;;;;18.64;58.20;101110.94;12875058;23;19948;-74
2022/09/01 18:58:57;;;;;;;;;;;;;;;18.60;58.17;101111.91;12872983;23;19924;-75
2022/09/01 19:04:07;;;;;;;;;;;;;;;18.49;58.30;101114.88;12871525;23;20274;-74
2022/09/01 19:09:15;;;;;;;;;;;;;;;18.47;58.11;101114.06;12871764;23;19951;-76
2022/09/01 19:14:26;;;;;;;;;;;;;;;18.40;59.39;101112.50;12860482;23;19948;-75
2022/09/01 19:19:37;;;;;;;;;;;;;;;18.34;59.13;101116.13;12871522;23;19931;-76
2022/09/01 19:24:43;;;;;;;;;;;;;;;18.26;59.65;101115.53;12871653;23;19952;-74
2022/09/01 19:29:51;;;;;;;;;;;;;;;18.16;59.68;101119.31;12859630;23;19920;-72
2022/09/01 19:34:57;;;;;;;;;;;;;;;18.08;59.96;101120.47;12870510;23;19991;-74
2022/09/01 19:40:00;;;;;;;;;;;;;;;18.07;60.20;101118.72;12870612;23;20006;-73
2022/09/01 19:45:06;;;;;;;;;;;;;;;18.01;60.63;101121.53;12859472;23;19995;-75
2022/09/01 19:50:14;;;;;;;;;;;;;;;17.95;60.46;101125.19;12859985;23;20060;-72
2022/09/01 19:55:20;;;;;;;;;;;;;;;17.90;61.04;101134.09;12870694;23;19994;-76
2022/09/01 20:00:25;;;;;;;;;;;;;;;17.84;61.78;101143.03;12858786;23;19920;-73
2022/09/01 20:05:31;;;;;;;;;;;;;;;17.76;62.27;101144.09;12859673;23;19958;-77
2022/09/01 20:10:46;;;;;;;;;;;;;;;17.74;62.32;101149.41;12871156;23;19978;-75
2022/09/01 20:16:04;;;;;;;;;;;;;;;17.61;62.27;101147.16;12869675;23;19928;-74
2022/09/01 20:21:10;;;;;;;;;;;;;;;17.54;63.00;101161.31;12870151;23;19970;-76
2022/09/01 20:26:25;;;;;;;;;;;;;;;17.48;63.40;101157.09;12870161;23;19974;-74
2022/09/01 20:31:31;;;;;;;;;;;;;;;17.48;63.10;101172.84;12870600;23;20003;-75
2022/09/01 20:36:38;;;;;;;;;;;;;;;17.41;63.81;101173.88;12868908;23;19943;-74
2022/09/01 20:41:45;;;;;;;;;;;;;;;17.40;64.19;101181.78;12868765;23;20293;-75
2022/09/01 20:46:49;;;;;;;;;;;;;;;17.33;64.44;101184.56;12868776;23;19988;-76
2022/09/01 20:51:57;;;;;;;;;;;;;;;17.21;64.61;101197.09;12859784;23;19943;-76
2022/09/01 20:57:06;;;;;;;;;;;;;;;17.13;65.55;101191.19;12858593;23;19954;-74
2022/09/01 21:02:13;;;;;;;;;;;;;;;17.10;65.53;101186.03;12832141;23;19975;-75
2022/09/01 21:07:19;;;;;;;;;;;;;;;17.08;65.79;101191.28;12868051;23;19970;-73
2022/09/01 21:12:30;;;;;;;;;;;;;;;17.06;65.97;101194.84;12868531;23;19955;-74
2022/09/01 21:17:38;;;;;;;;;;;;;;;16.98;66.24;101199.44;12867548;23;19970;-72
2022/09/01 21:22:43;;;;;;;;;;;;;;;17.01;66.24;101194.97;12867308;23;20031;-74
2022/09/01 21:27:51;;;;;;;;;;;;;;;16.94;66.43;101203.88;12858126;23;19999;-74
2022/09/01 21:32:55;;;;;;;;;;;;;;;16.84;66.73;101207.56;12832695;23;19923;-74
2022/09/01 21:38:00;;;;;;;;;;;;;;;16.79;67.12;101214.69;12861483;23;19951;-76
2022/09/01 21:43:05;;;;;;;;;;;;;;;16.79;67.35;101219.09;12863280;23;20003;-77
2022/09/01 21:48:08;;;;;;;;;;;;;;;16.71;67.02;101220.97;12871979;23;19939;-75
2022/09/01 21:53:13;;;;;;;;;;;;;;;16.63;67.47;101220.28;12862465;23;19981;-75
2022/09/01 21:58:16;;;;;;;;;;;;;;;16.64;67.72;101227.25;12862311;23;19999;-74
2022/09/01 22:03:19;;;;;;;;;;;;;;;16.57;67.42;101229.16;12863934;23;20001;-75
2022/09/01 22:08:24;;;;;;;;;;;;;;;16.48;67.64;101221.47;12863218;23;19992;-73
2022/09/01 22:13:27;;;;;;;;;;;;;;;16.54;67.48;101223.97;12862629;23;19991;-74
2022/09/01 22:18:30;;;;;;;;;;;;;;;16.37;67.38;101219.94;12861895;23;19991;-75
2022/09/01 22:23:35;;;;;;;;;;;;;;;16.45;67.20;101228.50;12860953;23;20005;-75
2022/09/01 22:28:38;;;;;;;;;;;;;;;16.33;67.72;101224.38;12860607;23;20268;-75
2022/09/01 22:33:42;;;;;;;;;;;;;;;16.25;68.10;101230.66;12860716;23;19943;-75
2022/09/01 22:38:46;;;;;;;;;;;;;;;16.25;68.10;101226.28;12860481;23;19970;-75
2022/09/01 22:43:50;;;;;;;;;;;;;;;16.23;67.35;101228.06;12861180;23;19928;-74
2022/09/01 22:48:54;;;;;;;;;;;;;;;16.18;67.00;101235.16;12859954;23;19974;-75
2022/09/01 22:53:58;;;;;;;;;;;;;;;16.08;67.01;101221.34;12860472;23;20077;-74
2022/09/01 22:59:03;;;;;;;;;;;;;;;16.06;67.06;101230.13;12861817;23;19948;-76
2022/09/01 23:04:07;;;;;;;;;;;;;;;15.99;66.83;101224.16;12860347;23;19924;-76
2022/09/01 23:09:11;;;;;;;;;;;;;;;16.08;66.41;101229.19;12860555;23;20441;-75
2022/09/01 23:14:14;;;;;;;;;;;;;;;16.07;65.81;101231.84;12860341;23;19991;-75
2022/09/01 23:19:17;;;;;;;;;;;;;;;15.88;65.97;101244.41;12859974;23;20379;-77
2022/09/01 23:24:22;;;;;;;;;;;;;;;15.91;64.81;101231.25;12860516;23;19995;-76
2022/09/01 23:29:25;;;;;;;;;;;;;;;15.77;65.30;101230.63;12859741;23;19920;-77
2022/09/01 23:34:28;;;;;;;;;;;;;;;15.71;64.78;101238.63;12860499;23;19954;-74
2022/09/01 23:39:32;;;;;;;;;;;;;;;15.62;65.94;101230.91;12862336;23;20283;-74
2022/09/01 23:44:36;;;;;;;;;;;;;;;15.75;65.19;101237.69;12861303;23;19982;-70
2022/09/01 23:49:40;;;;;;;;;;;;;;;15.68;65.59;101235.19;12859801;23;19923;-73
2022/09/01 23:54:44;;;;;;;;;;;;;;;15.61;65.39;101234.44;12859338;23;20003;-71
2022/09/01 23:59:47;;;;;;;;;;;;;;;15.53;65.96;101241.53;12858586;23;19959;-72
